Main page
METAR-TAF:

METAR-TAF

Airports :

Stockholm Skavsta Airport

Stockholm-Skavsta, Sweden

latitude: 58-47N, longitude: 016-55E, elevation: 43 m

Current weather observation

The report was made 25 minutes ago, at 03:50 UTC
Wind 5 kt from the East
Temperature -1°C
Humidity 93%
Pressure 996 hPa
Visibility 10 km or more
no clouds below 1500 m and no cumulonimbus

METAR: ESKN 250350Z 08005KT CAVOK M01/M02 Q0996 R26/09//95

Time: 05:15 (04:15 UTC)

Forecast

The report was made 4 hours and 45 minutes ago, at 23:30 UTC
Forecast valid from 25 at 00 UTC to 25 at 24 UTC
Wind 4 kt from the East
Visibility 10 km or more
no clouds below 1500 m and no cumulonimbus
Becoming
from 25 at 09 UTC to 25 at 11 UTC
Wind 14 kt from the East
Temporary
from 25 at 11 UTC to 25 at 14 UTC
Visibility: 4000 m
light snow, rain
Temporary
from 25 at 14 UTC to 25 at 24 UTC
Visibility: 1800 m
at a height of 1200 ft
snow

TAF: ESKN 242330Z 2500/2524 10004KT CAVOK BECMG 2509/2511 09014KT TEMPO 2511/2514 4000 -SNRA TEMPO 2514/2524 1800 SN VV012

Weather observations and forecasts of more than 4000 airports (METAR and TAF reports).

The available stations are represented by yellow and red dots on the map.

Hover mouse over dot to see the name of the station.

Then click to see weather observations and forecasts.

To change the map : click on the green buttons with a black cross to zoom in, on the green button with a dash to zoom out, or on the green arrows for adjacent maps.


METAR-TAF: